createdAt,value
2022-07-30T00:00:12.461Z,396.60
2022-07-30T00:00:57.590Z,399.99
2022-07-30T00:01:42.643Z,368.29
2022-07-30T00:02:27.779Z,400.84
2022-07-30T00:03:12.888Z,397.45
2022-07-30T00:03:57.854Z,399.99
2022-07-30T00:04:42.842Z,397.45
2022-07-30T00:05:27.893Z,396.60
2022-07-30T00:06:13.257Z,396.60
2022-07-30T00:06:58.246Z,383.01
2022-07-30T00:07:43.063Z,389.80
2022-07-30T00:08:28.331Z,397.45
2022-07-30T00:09:13.176Z,404.24
2022-07-30T00:09:58.229Z,410.18
2022-07-30T00:10:43.290Z,399.99
2022-07-30T00:11:28.425Z,404.24
2022-07-30T00:12:13.404Z,382.16
2022-07-30T00:12:58.360Z,398.29
2022-07-30T00:13:43.412Z,390.65
2022-07-30T00:14:28.468Z,396.60
2022-07-30T00:15:13.521Z,392.35
2022-07-30T00:15:58.578Z,396.60
2022-07-30T00:16:43.707Z,410.18
2022-07-30T00:17:28.691Z,381.31
2022-07-30T00:18:13.781Z,392.35
2022-07-30T00:18:58.810Z,386.41
2022-07-30T00:19:43.885Z,382.16
2022-07-30T00:20:29.032Z,391.50
2022-07-30T00:21:34.597Z,386.41
2022-07-30T00:21:59.032Z,387.25
2022-07-30T00:22:43.988Z,399.14
2022-07-30T00:23:29.150Z,385.56
2022-07-30T00:24:14.197Z,402.54
2022-07-30T00:24:59.164Z,399.99
2022-07-30T00:25:44.222Z,382.16
2022-07-30T00:26:29.270Z,392.35
2022-07-30T00:27:14.323Z,391.21
2022-07-30T00:27:59.382Z,395.75
2022-07-30T00:28:44.436Z,378.11
2022-07-30T00:29:29.597Z,388.95
2022-07-30T00:30:14.547Z,383.01
2022-07-30T00:30:59.687Z,396.60
2022-07-30T00:31:44.662Z,396.60
2022-07-30T00:32:29.717Z,373.20
2022-07-30T00:33:14.773Z,394.05
2022-07-30T00:33:59.847Z,393.20
2022-07-30T00:34:44.886Z,385.56
2022-07-30T00:35:29.939Z,382.16
2022-07-30T00:36:15.004Z,382.16
2022-07-30T00:37:00.186Z,394.90
2022-07-30T00:37:45.214Z,399.14
2022-07-30T00:38:30.166Z,377.06
2022-07-30T00:39:15.327Z,400.84
2022-07-30T00:40:00.382Z,377.29
2022-07-30T00:40:45.341Z,401.69
2022-07-30T00:41:30.393Z,394.90
2022-07-30T00:42:15.457Z,395.75
2022-07-30T00:43:00.645Z,391.50
2022-07-30T00:43:45.564Z,408.49
2022-07-30T00:44:30.616Z,414.43
2022-07-30T00:45:15.905Z,383.86
2022-07-30T00:46:00.787Z,399.99
2022-07-30T00:46:45.788Z,399.99
2022-07-30T00:47:30.843Z,384.71
2022-07-30T00:48:16.013Z,416.98
2022-07-30T00:49:01.003Z,387.11
2022-07-30T00:49:46.014Z,395.75
2022-07-30T00:50:31.175Z,395.75
2022-07-30T00:51:16.123Z,390.65
2022-07-30T00:52:01.234Z,394.90
2022-07-30T00:52:46.151Z,397.45
2022-07-30T00:53:31.292Z,407.64
2022-07-30T00:54:16.357Z,406.79
2022-07-30T00:55:01.457Z,404.24
2022-07-30T00:55:46.571Z,405.94
2022-07-30T00:56:31.521Z,383.02
2022-07-30T00:57:16.584Z,411.03
2022-07-30T00:58:01.789Z,398.29
2022-07-30T00:58:46.599Z,397.75
2022-07-30T00:59:31.649Z,431.42
2022-07-30T01:00:16.681Z,418.68
2022-07-30T01:01:01.844Z,399.14
2022-07-30T01:01:46.961Z,396.60
2022-07-30T01:02:31.918Z,396.60
2022-07-30T01:03:16.924Z,387.25
2022-07-30T01:04:02.122Z,413.58
2022-07-30T01:04:47.041Z,410.18
2022-07-30T01:05:32.094Z,414.43
2022-07-30T01:06:17.257Z,414.43
2022-07-30T01:07:02.633Z,400.84
2022-07-30T01:07:47.064Z,387.93
2022-07-30T01:08:32.324Z,402.54
2022-07-30T01:09:17.489Z,406.79
2022-07-30T01:10:02.434Z,394.48
2022-07-30T01:10:47.392Z,410.18
2022-07-30T01:11:32.647Z,394.05
2022-07-30T01:12:17.608Z,405.09
2022-07-30T01:13:02.799Z,382.16
2022-07-30T01:13:47.820Z,378.11
2022-07-30T01:14:32.769Z,400.84
2022-07-30T01:15:17.982Z,400.84
2022-07-30T01:16:03.104Z,426.32
2022-07-30T01:16:48.071Z,388.10
2022-07-30T01:17:33.000Z,422.07
2022-07-30T01:18:18.054Z,402.54
2022-07-30T01:19:03.237Z,418.68
2022-07-30T01:19:48.198Z,405.09
2022-07-30T01:20:33.224Z,407.64
2022-07-30T01:21:18.279Z,424.62
2022-07-30T01:22:03.644Z,401.69
2022-07-30T01:22:48.524Z,400.21
2022-07-30T01:23:33.451Z,407.64
2022-07-30T01:24:18.507Z,387.93
2022-07-30T01:25:03.779Z,420.38
2022-07-30T01:25:48.512Z,394.90
2022-07-30T01:26:33.575Z,404.24
2022-07-30T01:27:19.878Z,430.57
2022-07-30T01:28:03.823Z,399.99
2022-07-30T01:28:48.541Z,425.47
2022-07-30T01:29:33.591Z,399.99
2022-07-30T01:30:18.757Z,400.84
2022-07-30T01:31:03.946Z,422.07
2022-07-30T01:31:48.876Z,422.07
2022-07-30T01:32:34.032Z,416.13
2022-07-30T01:33:18.978Z,402.54
2022-07-30T01:34:04.139Z,406.79
2022-07-30T01:34:49.086Z,397.45
2022-07-30T01:35:34.147Z,393.20
2022-07-30T01:36:19.205Z,388.10
2022-07-30T01:37:04.453Z,408.49
2022-07-30T01:37:49.312Z,418.68
2022-07-30T01:38:34.997Z,417.83
2022-07-30T01:39:19.477Z,409.34
2022-07-30T01:40:04.591Z,421.22
2022-07-30T01:40:49.438Z,421.22
2022-07-30T01:41:34.511Z,407.64
2022-07-30T01:42:19.458Z,416.98
2022-07-30T01:43:04.622Z,399.99
2022-07-30T01:43:49.572Z,413.58
2022-07-30T01:44:34.617Z,403.39
2022-07-30T01:45:19.780Z,421.22
2022-07-30T01:46:04.994Z,423.77
2022-07-30T01:46:49.790Z,425.47
2022-07-30T01:47:34.847Z,423.77
2022-07-30T01:48:19.933Z,428.02
2022-07-30T01:49:05.131Z,431.42
2022-07-30T01:49:50.019Z,435.66
2022-07-30T01:50:35.073Z,405.94
2022-07-30T01:51:20.019Z,436.51
2022-07-30T01:52:05.184Z,394.05
2022-07-30T01:52:50.240Z,388.10
2022-07-30T01:53:35.296Z,410.18
2022-07-30T01:54:20.246Z,409.34
2022-07-30T01:55:05.507Z,415.28
2022-07-30T01:55:50.364Z,415.28
2022-07-30T01:56:35.447Z,411.03
2022-07-30T01:57:20.343Z,414.43
2022-07-30T01:58:05.529Z,416.98
2022-07-30T01:58:50.587Z,394.05
2022-07-30T01:59:35.642Z,417.83
2022-07-30T02:00:20.549Z,415.28
2022-07-30T02:01:06.221Z,405.94
2022-07-30T02:01:50.846Z,422.92
2022-07-30T02:02:35.874Z,401.69
2022-07-30T02:03:21.988Z,428.02
2022-07-30T02:04:06.045Z,410.18
2022-07-30T02:04:51.143Z,405.09
2022-07-30T02:05:36.200Z,408.49
2022-07-30T02:06:21.308Z,413.58
2022-07-30T02:07:06.437Z,399.99
2022-07-30T02:07:51.264Z,397.45
2022-07-30T02:08:36.324Z,404.30
2022-07-30T02:09:21.379Z,411.03
2022-07-30T02:10:06.507Z,410.18
2022-07-30T02:10:51.489Z,391.21
2022-07-30T02:11:36.661Z,394.05
2022-07-30T02:12:21.627Z,389.57
2022-07-30T02:13:06.778Z,428.87
2022-07-30T02:13:51.715Z,420.38
2022-07-30T02:14:36.889Z,401.03
2022-07-30T02:15:21.940Z,406.79
2022-07-30T02:16:07.025Z,432.26
2022-07-30T02:16:51.941Z,406.79
2022-07-30T02:17:39.769Z,403.39
2022-07-30T02:18:23.779Z,416.13
2022-07-30T02:19:07.314Z,409.34
2022-07-30T02:19:52.171Z,421.22
2022-07-30T02:20:38.475Z,422.07
2022-07-30T02:21:22.288Z,415.28
2022-07-30T02:22:08.675Z,406.79
2022-07-30T02:22:52.498Z,405.94
2022-07-30T02:23:37.452Z,417.83
2022-07-30T02:24:22.508Z,403.39
2022-07-30T02:25:07.666Z,400.84
2022-07-30T02:25:52.624Z,397.45
2022-07-30T02:26:37.701Z,416.98
2022-07-30T02:27:22.732Z,416.98
2022-07-30T02:28:08.213Z,394.05
2022-07-30T02:28:52.951Z,425.47
2022-07-30T02:29:37.905Z,399.14
2022-07-30T02:30:22.867Z,399.99
2022-07-30T02:31:17.567Z,378.11
2022-07-30T02:31:53.012Z,388.95
2022-07-30T02:32:38.130Z,405.94
2022-07-30T02:33:23.287Z,395.75
2022-07-30T02:34:08.345Z,402.54
2022-07-30T02:34:53.258Z,405.09
2022-07-30T02:35:38.352Z,409.34
2022-07-30T02:36:23.304Z,403.39
2022-07-30T02:37:08.466Z,416.98
2022-07-30T02:37:53.523Z,410.18
2022-07-30T02:38:38.602Z,412.73
2022-07-30T02:39:23.635Z,412.73
2022-07-30T02:40:08.695Z,393.20
2022-07-30T02:40:53.746Z,415.28
2022-07-30T02:41:38.801Z,402.54
2022-07-30T02:42:23.859Z,401.69
2022-07-30T02:43:08.913Z,396.60
2022-07-30T02:43:53.971Z,400.21
2022-07-30T02:44:39.045Z,421.22
2022-07-30T02:45:24.085Z,407.64
2022-07-30T02:46:09.247Z,382.16
2022-07-30T02:46:54.276Z,405.09
2022-07-30T02:47:39.253Z,389.80
2022-07-30T02:48:34.277Z,406.79
2022-07-30T02:49:09.402Z,409.34
2022-07-30T02:49:54.319Z,386.41
2022-07-30T02:50:39.487Z,400.84
2022-07-30T02:51:24.607Z,387.25
2022-07-30T02:52:09.531Z,384.71
2022-07-30T02:52:54.610Z,384.71
2022-07-30T02:53:39.606Z,391.50
2022-07-30T02:54:24.663Z,388.95
2022-07-30T02:55:09.650Z,387.25
2022-07-30T02:55:54.793Z,399.99
2022-07-30T02:56:39.830Z,401.69
2022-07-30T02:57:24.826Z,383.01
2022-07-30T02:58:10.058Z,393.20
2022-07-30T02:58:54.998Z,411.88
2022-07-30T02:59:39.951Z,397.45
2022-07-30T03:00:25.135Z,387.11
2022-07-30T03:01:10.207Z,398.29
2022-07-30T03:01:55.299Z,401.69
2022-07-30T03:02:40.183Z,391.21
2022-07-30T03:03:25.138Z,399.99
2022-07-30T03:04:10.293Z,402.54
2022-07-30T03:04:55.380Z,405.94
2022-07-30T03:05:40.404Z,409.34
2022-07-30T03:06:25.471Z,390.65
2022-07-30T03:07:10.783Z,407.64
2022-07-30T03:07:55.611Z,401.84
2022-07-30T03:08:40.525Z,406.79
2022-07-30T03:09:25.687Z,404.24
2022-07-30T03:10:10.953Z,396.60
2022-07-30T03:10:55.806Z,381.31
2022-07-30T03:11:40.773Z,382.16
2022-07-30T03:12:25.911Z,384.71
2022-07-30T03:13:10.864Z,381.31
2022-07-30T03:13:56.033Z,398.29
2022-07-30T03:14:40.980Z,388.95
2022-07-30T03:15:26.139Z,388.95
2022-07-30T03:16:11.116Z,394.90
2022-07-30T03:16:56.151Z,396.60
2022-07-30T03:17:41.205Z,382.16
2022-07-30T03:18:26.262Z,388.95
2022-07-30T03:19:11.321Z,391.50
2022-07-30T03:19:56.369Z,389.80
2022-07-30T03:20:41.434Z,370.74
2022-07-30T03:21:26.524Z,398.29
2022-07-30T03:22:11.648Z,394.90
2022-07-30T03:22:56.605Z,394.90
2022-07-30T03:23:41.656Z,386.41
2022-07-30T03:24:26.713Z,356.83
2022-07-30T03:25:11.771Z,393.20
2022-07-30T03:25:56.851Z,396.60
2022-07-30T03:26:41.921Z,376.21
2022-07-30T03:27:26.938Z,404.24
2022-07-30T03:28:12.101Z,401.69
2022-07-30T03:28:57.049Z,397.45
2022-07-30T03:29:41.985Z,389.80
2022-07-30T03:30:27.165Z,373.67
2022-07-30T03:31:12.288Z,388.10
2022-07-30T03:31:57.347Z,382.16
2022-07-30T03:32:43.029Z,366.87
2022-07-30T03:33:38.388Z,378.76
2022-07-30T03:34:12.781Z,374.52
2022-07-30T03:34:57.399Z,394.90
2022-07-30T03:35:42.556Z,373.67
2022-07-30T03:36:27.624Z,394.90
2022-07-30T03:37:12.463Z,406.79
2022-07-30T03:37:57.560Z,403.39
2022-07-30T03:38:42.781Z,405.94
2022-07-30T03:39:27.734Z,356.01
2022-07-30T03:40:12.801Z,383.01
2022-07-30T03:40:57.851Z,396.60
2022-07-30T03:41:42.920Z,389.80
2022-07-30T03:42:28.096Z,397.45
2022-07-30T03:43:32.636Z,370.74
2022-07-30T03:43:58.179Z,377.06
2022-07-30T03:44:43.240Z,395.75
2022-07-30T03:45:28.220Z,384.71
2022-07-30T03:46:13.600Z,376.21
2022-07-30T03:46:58.658Z,374.52
2022-07-30T03:47:43.465Z,383.86
2022-07-30T03:48:28.436Z,393.20
2022-07-30T03:49:13.626Z,388.10
2022-07-30T03:49:58.639Z,396.60
2022-07-30T03:50:43.525Z,396.60
2022-07-30T03:51:32.993Z,381.31
2022-07-30T03:52:13.802Z,383.01
2022-07-30T03:52:58.759Z,394.05
2022-07-30T03:53:43.816Z,413.58
2022-07-30T03:54:28.872Z,399.99
2022-07-30T03:55:13.923Z,402.54
2022-07-30T03:55:58.982Z,394.05
2022-07-30T03:56:44.049Z,397.45
2022-07-30T03:57:29.094Z,399.99
2022-07-30T03:58:14.159Z,413.58
2022-07-30T03:58:59.313Z,407.64
2022-07-30T03:59:44.371Z,375.37
2022-07-30T04:00:29.323Z,388.95
2022-07-30T04:01:14.375Z,385.56
2022-07-30T04:01:59.478Z,385.56
2022-07-30T04:02:44.510Z,409.34
2022-07-30T04:03:29.508Z,401.69
2022-07-30T04:04:14.510Z,410.18
2022-07-30T04:04:59.661Z,403.39
2022-07-30T04:05:44.651Z,385.48
2022-07-30T04:06:29.810Z,389.80
2022-07-30T04:07:14.832Z,380.57
2022-07-30T04:07:59.778Z,386.41
2022-07-30T04:08:44.736Z,409.34
2022-07-30T04:09:29.892Z,393.20
2022-07-30T04:10:15.055Z,409.34
2022-07-30T04:11:00.006Z,382.20
2022-07-30T04:11:45.068Z,397.45
2022-07-30T04:12:30.118Z,399.14
2022-07-30T04:13:15.183Z,410.18
2022-07-30T04:14:00.272Z,416.98
2022-07-30T04:14:45.394Z,405.09
2022-07-30T04:16:05.860Z,393.20
2022-07-30T04:16:39.783Z,410.18
2022-07-30T04:17:00.662Z,405.09
2022-07-30T04:17:45.522Z,420.38
2022-07-30T04:18:30.476Z,413.58
2022-07-30T04:19:15.632Z,395.75
2022-07-30T04:20:00.686Z,407.64
2022-07-30T04:20:45.844Z,418.68
2022-07-30T04:21:30.795Z,401.69
2022-07-30T04:22:15.745Z,411.03
2022-07-30T04:23:00.770Z,388.10
2022-07-30T04:24:02.334Z,399.99
2022-07-30T04:24:31.018Z,394.05
2022-07-30T04:25:18.507Z,405.09
2022-07-30T04:26:01.133Z,396.60
2022-07-30T04:26:46.187Z,409.34
2022-07-30T04:27:31.423Z,397.45
2022-07-30T04:28:16.299Z,410.18
2022-07-30T04:29:01.422Z,402.54
2022-07-30T04:29:46.423Z,398.57
2022-07-30T04:30:31.370Z,401.69
2022-07-30T04:31:16.574Z,403.39
2022-07-30T04:32:01.691Z,400.84
2022-07-30T04:32:46.579Z,405.94
2022-07-30T04:33:31.702Z,401.69
2022-07-30T04:34:16.795Z,396.60
2022-07-30T04:35:02.044Z,397.45
2022-07-30T04:35:50.047Z,386.41
2022-07-30T04:36:31.925Z,405.09
2022-07-30T04:37:17.063Z,391.50
2022-07-30T04:38:01.979Z,405.94
2022-07-30T04:38:47.102Z,387.11
2022-07-30T04:39:32.050Z,407.64
2022-07-30T04:40:17.102Z,405.09
2022-07-30T04:41:02.159Z,406.79
2022-07-30T04:41:49.545Z,410.18
2022-07-30T04:42:32.268Z,409.34
2022-07-30T04:43:17.228Z,399.14
2022-07-30T04:44:02.533Z,390.65
2022-07-30T04:44:47.342Z,395.75
2022-07-30T04:45:32.304Z,393.20
2022-07-30T04:46:17.406Z,399.99
2022-07-30T04:47:03.064Z,394.90
2022-07-30T04:47:47.474Z,376.21
2022-07-30T04:48:32.520Z,407.64
2022-07-30T04:49:17.831Z,400.84
2022-07-30T04:50:02.668Z,403.39
2022-07-30T04:50:47.687Z,394.90
2022-07-30T04:51:32.745Z,381.31
2022-07-30T04:52:17.714Z,387.25
2022-07-30T04:53:02.886Z,389.80
2022-07-30T04:53:47.864Z,371.97
2022-07-30T04:54:32.973Z,392.35
2022-07-30T04:55:18.022Z,386.41
2022-07-30T04:56:03.189Z,390.65
2022-07-30T04:56:53.191Z,389.80
2022-07-30T04:57:33.195Z,366.87
2022-07-30T04:58:18.249Z,406.79
2022-07-30T04:59:03.415Z,395.75
2022-07-30T04:59:48.365Z,405.09
2022-07-30T05:00:35.738Z,388.10
2022-07-30T05:01:18.531Z,398.29
2022-07-30T05:02:03.607Z,393.20
2022-07-30T05:02:48.589Z,393.20
2022-07-30T05:03:33.552Z,396.60
2022-07-30T05:04:18.600Z,389.80
2022-07-30T05:05:03.924Z,397.45
2022-07-30T05:05:48.713Z,395.75
2022-07-30T05:06:33.769Z,394.90
2022-07-30T05:07:19.105Z,402.54
2022-07-30T05:08:04.122Z,392.35
2022-07-30T05:08:49.054Z,385.56
2022-07-30T05:09:33.995Z,398.29
2022-07-30T05:10:19.049Z,384.71
2022-07-30T05:11:04.104Z,391.50
2022-07-30T05:11:49.269Z,395.30
2022-07-30T05:12:34.258Z,392.35
2022-07-30T05:13:19.274Z,395.75
2022-07-30T05:14:04.436Z,394.05
2022-07-30T05:14:49.491Z,396.60
2022-07-30T05:15:36.037Z,395.75
2022-07-30T05:16:19.560Z,399.14
2022-07-30T05:17:04.818Z,376.21
2022-07-30T05:17:49.521Z,399.14
2022-07-30T05:18:34.671Z,395.75
2022-07-30T05:19:19.648Z,394.90
2022-07-30T05:20:04.793Z,405.09
2022-07-30T05:20:49.776Z,398.29
2022-07-30T05:21:34.800Z,404.24
2022-07-30T05:22:19.853Z,408.49
2022-07-30T05:23:04.906Z,416.13
2022-07-30T05:23:50.744Z,428.87
2022-07-30T05:24:34.917Z,387.25
2022-07-30T05:25:19.973Z,395.75
2022-07-30T05:26:05.203Z,395.75
2022-07-30T05:26:50.199Z,410.18
2022-07-30T05:27:35.040Z,399.14
2022-07-30T05:28:20.201Z,395.75
2022-07-30T05:29:07.091Z,390.65
2022-07-30T05:29:50.223Z,396.60
2022-07-30T05:30:35.174Z,399.14
2022-07-30T05:31:20.328Z,422.07
2022-07-30T05:32:05.490Z,406.76
2022-07-30T05:32:50.337Z,390.65
2022-07-30T05:33:40.892Z,388.95
2022-07-30T05:34:20.341Z,423.77
2022-07-30T05:35:05.402Z,402.54
2022-07-30T05:35:50.471Z,382.20
2022-07-30T05:36:35.477Z,401.69
2022-07-30T05:37:20.452Z,397.45
2022-07-30T05:38:05.783Z,397.45
2022-07-30T05:38:50.587Z,404.24
2022-07-30T05:39:35.754Z,398.29
2022-07-30T05:40:20.698Z,399.99
2022-07-30T05:41:05.754Z,399.99
2022-07-30T05:41:50.702Z,387.25
2022-07-30T05:42:36.030Z,394.90
2022-07-30T05:43:20.926Z,405.94
2022-07-30T05:44:06.082Z,415.28
2022-07-30T05:44:51.033Z,393.20
2022-07-30T05:45:36.093Z,409.34
2022-07-30T05:46:21.205Z,405.09
2022-07-30T05:47:06.410Z,405.94
2022-07-30T05:47:51.369Z,419.53
2022-07-30T05:48:36.313Z,415.28
2022-07-30T05:49:21.426Z,416.98
2022-07-30T05:50:06.737Z,379.75
2022-07-30T05:50:51.496Z,432.26
2022-07-30T05:51:36.544Z,421.22
2022-07-30T05:52:21.602Z,425.47
2022-07-30T05:53:06.655Z,411.88
2022-07-30T05:53:51.711Z,396.60
2022-07-30T05:54:36.769Z,412.73
2022-07-30T05:55:21.826Z,416.98
2022-07-30T05:56:06.981Z,402.54
2022-07-30T05:56:51.938Z,405.09
2022-07-30T05:57:37.111Z,409.34
2022-07-30T05:58:22.155Z,428.02
2022-07-30T05:59:07.111Z,417.39
2022-07-30T05:59:52.179Z,416.13
2022-07-30T06:00:37.324Z,410.18
2022-07-30T06:01:22.459Z,389.57
2022-07-30T06:02:07.440Z,412.73
2022-07-30T06:02:52.409Z,408.49
2022-07-30T06:03:37.565Z,424.62
2022-07-30T06:04:22.666Z,408.49
2022-07-30T06:05:07.762Z,399.99
2022-07-30T06:05:52.733Z,398.29
2022-07-30T06:06:37.776Z,413.58
2022-07-30T06:07:22.753Z,424.62
2022-07-30T06:08:08.097Z,390.65
2022-07-30T06:08:52.851Z,411.03
2022-07-30T06:09:37.895Z,407.64
2022-07-30T06:10:22.954Z,399.99
2022-07-30T06:11:08.219Z,394.05
2022-07-30T06:11:53.171Z,399.39
2022-07-30T06:12:38.023Z,412.73
2022-07-30T06:13:23.187Z,411.88
2022-07-30T06:14:08.250Z,404.24
2022-07-30T06:14:53.107Z,413.58
2022-07-30T06:15:38.181Z,399.14
2022-07-30T06:16:23.352Z,399.14
2022-07-30T06:17:08.564Z,407.64
2022-07-30T06:17:59.457Z,411.88
2022-07-30T06:18:38.577Z,425.47
2022-07-30T06:19:23.525Z,409.34
2022-07-30T06:20:08.789Z,404.24
2022-07-30T06:20:53.640Z,402.66
2022-07-30T06:22:05.301Z,415.28
2022-07-30T06:22:26.152Z,413.58
2022-07-30T06:23:08.924Z,413.58
2022-07-30T06:23:53.764Z,433.11
2022-07-30T06:24:38.825Z,414.12
2022-07-30T06:25:23.920Z,419.53
2022-07-30T06:26:08.829Z,426.32
2022-07-30T06:26:53.854Z,417.83
2022-07-30T06:27:39.857Z,425.47
2022-07-30T06:28:36.918Z,394.48
2022-07-30T06:29:09.058Z,405.09
2022-07-30T06:29:54.013Z,413.58
2022-07-30T06:30:39.022Z,406.76
2022-07-30T06:31:24.169Z,412.73
2022-07-30T06:32:09.179Z,405.94
2022-07-30T06:32:54.254Z,411.03
2022-07-30T06:33:39.289Z,419.53
2022-07-30T06:34:24.375Z,387.11
2022-07-30T06:35:09.405Z,439.06
2022-07-30T06:35:54.356Z,416.13
2022-07-30T06:36:39.519Z,415.28
2022-07-30T06:37:24.676Z,432.26
2022-07-30T06:38:09.633Z,419.85
2022-07-30T06:38:54.693Z,409.34
2022-07-30T06:39:56.710Z,432.26
2022-07-30T06:40:24.701Z,470.48
2022-07-30T06:41:09.758Z,431.42
2022-07-30T06:41:54.811Z,406.76
2022-07-30T06:42:39.971Z,428.02
2022-07-30T06:43:24.925Z,421.22
2022-07-30T06:44:10.089Z,416.13
2022-07-30T06:44:55.147Z,424.62
2022-07-30T06:45:40.099Z,422.92
2022-07-30T06:46:25.294Z,405.94
2022-07-30T06:47:10.477Z,421.22
2022-07-30T06:47:55.368Z,422.92
2022-07-30T06:48:40.331Z,444.15
2022-07-30T06:49:25.464Z,420.38
2022-07-30T06:50:10.428Z,422.07
2022-07-30T06:50:55.604Z,388.10
2022-07-30T06:51:40.441Z,425.47
2022-07-30T06:52:25.499Z,424.62
2022-07-30T06:53:10.560Z,407.64
2022-07-30T06:53:55.622Z,411.03
2022-07-30T06:54:40.669Z,437.36
2022-07-30T06:55:25.827Z,422.92
2022-07-30T06:56:10.888Z,422.92
2022-07-30T06:56:55.952Z,423.77
2022-07-30T06:57:42.616Z,422.07
2022-07-30T06:58:25.957Z,439.06
2022-07-30T06:59:11.009Z,432.26
2022-07-30T06:59:57.620Z,432.26
2022-07-30T07:00:41.126Z,427.17
2022-07-30T07:01:26.215Z,445.00
2022-07-30T07:02:11.250Z,437.36
2022-07-30T07:02:56.323Z,442.46
2022-07-30T07:03:41.508Z,423.77
2022-07-30T07:04:26.563Z,442.46
2022-07-30T07:05:11.465Z,424.62
2022-07-30T07:05:56.524Z,412.73
2022-07-30T07:06:41.574Z,422.92
2022-07-30T07:07:40.652Z,433.11
2022-07-30T07:08:11.731Z,411.03
2022-07-30T07:08:56.740Z,416.98
2022-07-30T07:09:44.726Z,404.24
2022-07-30T07:10:26.649Z,427.17
2022-07-30T07:11:11.707Z,429.72
2022-07-30T07:11:56.758Z,405.94
2022-07-30T07:12:41.828Z,421.22
2022-07-30T07:13:26.876Z,397.45
2022-07-30T07:14:12.047Z,412.73
2022-07-30T07:14:56.996Z,404.30
2022-07-30T07:15:42.061Z,402.54
2022-07-30T07:16:27.265Z,387.25
2022-07-30T07:17:12.190Z,405.09
2022-07-30T07:17:57.217Z,410.18
2022-07-30T07:18:42.289Z,410.18
2022-07-30T07:19:59.767Z,417.83
2022-07-30T07:20:12.306Z,414.12
2022-07-30T07:20:57.343Z,404.24
2022-07-30T07:21:42.399Z,390.65
2022-07-30T07:22:27.356Z,409.34
2022-07-30T07:23:12.670Z,394.90
2022-07-30T07:23:57.359Z,416.13
2022-07-30T07:24:42.519Z,411.88
2022-07-30T07:25:27.469Z,403.39
2022-07-30T07:26:12.524Z,407.64
2022-07-30T07:26:57.818Z,410.18
2022-07-30T07:27:42.742Z,417.83
2022-07-30T07:28:30.639Z,423.77
2022-07-30T07:29:12.646Z,416.98
2022-07-30T07:30:01.511Z,396.60
2022-07-30T07:30:42.775Z,393.20
2022-07-30T07:32:05.974Z,400.84
2022-07-30T07:32:12.826Z,398.29
2022-07-30T07:32:57.827Z,404.24
2022-07-30T07:33:42.893Z,409.34
2022-07-30T07:34:28.052Z,398.29
2022-07-30T07:35:12.998Z,412.73
2022-07-30T07:35:58.057Z,417.83
2022-07-30T07:36:43.225Z,419.53
2022-07-30T07:37:28.168Z,413.58
2022-07-30T07:38:13.330Z,396.60
2022-07-30T07:38:58.278Z,397.45
2022-07-30T07:39:43.338Z,406.79
2022-07-30T07:40:28.390Z,406.79
2022-07-30T07:41:13.450Z,396.60
2022-07-30T07:41:58.507Z,429.72
2022-07-30T07:42:43.563Z,411.88
2022-07-30T07:43:28.618Z,416.13
2022-07-30T07:44:13.688Z,416.13
2022-07-30T07:44:58.834Z,395.75
2022-07-30T07:45:43.830Z,411.88
2022-07-30T07:46:33.576Z,415.28
2022-07-30T07:47:13.705Z,401.69
2022-07-30T07:47:58.951Z,412.73
2022-07-30T07:48:44.040Z,418.68
2022-07-30T07:49:29.098Z,419.53
2022-07-30T07:50:14.229Z,415.28
2022-07-30T07:51:00.370Z,398.29
2022-07-30T07:51:47.386Z,382.20
2022-07-30T07:52:29.295Z,417.83
2022-07-30T07:53:14.255Z,432.26
2022-07-30T07:54:19.054Z,422.92
2022-07-30T07:54:44.359Z,414.43
2022-07-30T07:55:29.429Z,416.13
2022-07-30T07:56:14.471Z,417.83
2022-07-30T07:57:00.299Z,417.83
2022-07-30T07:57:44.481Z,439.91
2022-07-30T07:58:29.642Z,422.07
2022-07-30T07:59:14.595Z,405.94
2022-07-30T07:59:59.759Z,430.57
2022-07-30T08:00:44.743Z,425.47
2022-07-30T08:01:29.791Z,399.39
2022-07-30T08:02:14.891Z,427.17
2022-07-30T08:02:59.884Z,421.22
2022-07-30T08:03:44.933Z,400.84
2022-07-30T08:04:29.995Z,422.92
2022-07-30T08:05:15.053Z,393.66
2022-07-30T08:06:06.343Z,421.22
2022-07-30T08:06:45.164Z,374.84
2022-07-30T08:07:30.219Z,419.53
2022-07-30T08:08:15.382Z,403.39
2022-07-30T08:09:00.334Z,403.39
2022-07-30T08:09:45.454Z,398.29
2022-07-30T08:10:30.339Z,400.84
2022-07-30T08:11:15.498Z,425.47
2022-07-30T08:12:00.555Z,405.09
2022-07-30T08:12:45.512Z,402.54
2022-07-30T08:13:49.350Z,413.58
2022-07-30T08:14:15.729Z,399.99
2022-07-30T08:15:00.683Z,399.14
2022-07-30T08:15:45.766Z,411.03
2022-07-30T08:16:30.833Z,428.87
2022-07-30T08:17:16.032Z,415.28
2022-07-30T08:18:00.901Z,372.38
2022-07-30T08:18:45.959Z,408.49
2022-07-30T08:19:31.019Z,411.88
2022-07-30T08:20:15.994Z,394.48
2022-07-30T08:21:01.130Z,417.83
2022-07-30T08:21:46.187Z,420.38
2022-07-30T08:22:31.239Z,416.98
2022-07-30T08:23:16.298Z,411.88
2022-07-30T08:24:01.370Z,393.66
2022-07-30T08:24:46.529Z,409.34
2022-07-30T08:25:31.468Z,407.64
2022-07-30T08:26:16.527Z,403.39
2022-07-30T08:27:01.822Z,405.09
2022-07-30T08:27:46.636Z,406.79
2022-07-30T08:28:35.803Z,416.13
2022-07-30T08:29:17.360Z,398.29
2022-07-30T08:30:01.746Z,388.10
2022-07-30T08:30:46.784Z,422.92
2022-07-30T08:31:31.814Z,412.73
2022-07-30T08:32:16.871Z,417.83
2022-07-30T08:33:02.166Z,417.83
2022-07-30T08:33:46.984Z,395.75
2022-07-30T08:34:32.056Z,399.99
2022-07-30T08:35:16.993Z,399.99
2022-07-30T08:36:04.411Z,401.69
2022-07-30T08:36:47.229Z,392.84
2022-07-30T08:37:32.270Z,389.80
2022-07-30T08:38:17.438Z,405.94
2022-07-30T08:39:02.622Z,425.47
2022-07-30T08:39:47.438Z,416.13
2022-07-30T08:40:32.498Z,395.30
2022-07-30T08:41:17.577Z,416.98
2022-07-30T08:42:03.134Z,424.62
2022-07-30T08:42:47.670Z,416.13
2022-07-30T08:43:32.825Z,402.54
2022-07-30T08:44:17.779Z,400.84
2022-07-30T08:45:02.857Z,397.45
2022-07-30T08:45:47.885Z,406.76
2022-07-30T08:46:32.942Z,428.02
2022-07-30T08:47:18.002Z,404.24
2022-07-30T08:48:03.193Z,416.13
2022-07-30T08:48:48.112Z,415.28
2022-07-30T08:49:33.171Z,416.98
2022-07-30T08:50:18.230Z,414.43
2022-07-30T08:51:03.191Z,394.90
2022-07-30T08:51:48.341Z,407.64
2022-07-30T08:52:33.409Z,394.90
2022-07-30T08:53:18.452Z,381.38
2022-07-30T08:54:03.748Z,388.10
2022-07-30T08:54:48.671Z,405.09
2022-07-30T08:55:33.629Z,397.45
2022-07-30T08:56:18.679Z,406.79
2022-07-30T08:57:04.611Z,392.35
2022-07-30T08:57:48.792Z,399.14
2022-07-30T08:58:33.848Z,403.39
2022-07-30T08:59:19.008Z,402.54
2022-07-30T09:00:04.142Z,413.58
2022-07-30T09:00:49.100Z,392.02
2022-07-30T09:01:34.078Z,410.18
2022-07-30T09:02:27.818Z,399.14
2022-07-30T09:03:04.099Z,395.75
2022-07-30T09:03:49.034Z,397.45
2022-07-30T09:04:34.201Z,415.28
2022-07-30T09:05:19.148Z,414.43
2022-07-30T09:06:04.345Z,395.75
2022-07-30T09:06:49.381Z,399.14
2022-07-30T09:07:34.319Z,402.54
2022-07-30T09:08:19.458Z,360.64
2022-07-30T09:09:04.448Z,317.59
2022-07-30T09:09:49.520Z,332.39
2022-07-30T09:10:34.546Z,317.12
2022-07-30T09:11:19.608Z,333.78
2022-07-30T09:12:04.655Z,338.23
2022-07-30T09:12:49.715Z,336.81
2022-07-30T09:13:34.484Z,351.67
2022-07-30T09:14:19.731Z,340.35
2022-07-30T09:15:04.986Z,293.52
2022-07-30T09:15:49.843Z,322.67
2022-07-30T09:16:34.898Z,318.51
2022-07-30T09:17:19.978Z,314.87
2022-07-30T09:18:05.010Z,315.03
2022-07-30T09:18:50.065Z,320.36
2022-07-30T09:19:35.233Z,320.36
2022-07-30T09:20:20.282Z,309.22
2022-07-30T09:21:05.334Z,305.40
2022-07-30T09:21:50.289Z,299.02